VIR202 EDDH-EGCC
Flight info
| Callsign | VIR202 |
|---|---|
| Flight time | 1h 17m |
| Altitude | 34000 |
| Route | WSN5C/05 WSN N125 ITMIZ DCT MIMVA DCT OTBED |
| Aircraft | A333/H-SDE3GHIJ2J3J5M1RVWXY/LB2D1 |
Departure
| Time | 2026-04-20 15:31 |
|---|---|
| Airport | Hamburg Helmut Schmidt Airport (EDDH) |
Arrival
| Time | 2026-04-20 16:48 |
|---|---|
| Airport | Manchester Airport (EGCC) |
| Time | Latitude | Longitude | Altitude | Speed | Heading |
|---|---|---|---|---|---|
| 2026-04-20 14:54 | 53.63280 | 10.00362 | 47 ft | 0 kts | 86° |
| 2026-04-20 15:13 | 53.63280 | 10.00339 | 46 ft | 2 kts | 86° |
| 2026-04-20 15:13 | 53.63279 | 10.00324 | 46 ft | 2 kts | 84° |
| 2026-04-20 15:14 | 53.63276 | 10.00299 | 45 ft | 2 kts | 69° |
| 2026-04-20 15:14 | 53.63270 | 10.00276 | 45 ft | 2 kts | 58° |
| 2026-04-20 15:14 | 53.63261 | 10.00256 | 44 ft | 2 kts | 46° |
| 2026-04-20 15:14 | 53.63250 | 10.00238 | 44 ft | 2 kts | 34° |
| 2026-04-20 15:15 | 53.63238 | 10.00225 | 43 ft | 2 kts | 23° |
| 2026-04-20 15:15 | 53.63224 | 10.00217 | 42 ft | 2 kts | 12° |
| 2026-04-20 15:15 | 53.63209 | 10.00213 | 42 ft | 2 kts | 0° |
| 2026-04-20 15:15 | 53.63202 | 10.00214 | 42 ft | 1 kts | 355° |
| 2026-04-20 15:16 | 53.63200 | 10.00214 | 42 ft | 0 kts | 355° |
| 2026-04-20 15:23 | 53.63205 | 10.00213 | 42 ft | 2 kts | 356° |
| 2026-04-20 15:23 | 53.63218 | 10.00211 | 42 ft | 1 kts | 356° |
| 2026-04-20 15:23 | 53.63293 | 10.00203 | 43 ft | 16 kts | 357° |
| 2026-04-20 15:23 | 53.63401 | 10.00177 | 44 ft | 12 kts | 325° |
| 2026-04-20 15:24 | 53.63421 | 10.00062 | 42 ft | 10 kts | 249° |
| 2026-04-20 15:24 | 53.63367 | 9.99942 | 37 ft | 14 kts | 230° |
| 2026-04-20 15:24 | 53.63300 | 9.99805 | 35 ft | 15 kts | 230° |
| 2026-04-20 15:24 | 53.63225 | 9.99676 | 36 ft | 14 kts | 226° |
| 2026-04-20 15:25 | 53.63161 | 9.99550 | 36 ft | 14 kts | 231° |
| 2026-04-20 15:25 | 53.63094 | 9.99389 | 36 ft | 21 kts | 236° |
| 2026-04-20 15:25 | 53.63001 | 9.99182 | 39 ft | 25 kts | 230° |
| 2026-04-20 15:25 | 53.62878 | 9.98931 | 42 ft | 28 kts | 230° |
| 2026-04-20 15:26 | 53.62753 | 9.98680 | 43 ft | 27 kts | 230° |
| 2026-04-20 15:26 | 53.62633 | 9.98437 | 41 ft | 27 kts | 230° |
| 2026-04-20 15:26 | 53.62506 | 9.98198 | 40 ft | 27 kts | 222° |
| 2026-04-20 15:26 | 53.62372 | 9.97976 | 38 ft | 27 kts | 231° |
| 2026-04-20 15:27 | 53.62252 | 9.97731 | 37 ft | 27 kts | 230° |
| 2026-04-20 15:27 | 53.62128 | 9.97482 | 34 ft | 28 kts | 230° |
| 2026-04-20 15:27 | 53.62006 | 9.97232 | 36 ft | 26 kts | 230° |
| 2026-04-20 15:27 | 53.61889 | 9.96998 | 36 ft | 26 kts | 230° |
| 2026-04-20 15:28 | 53.61789 | 9.96794 | 36 ft | 20 kts | 230° |
| 2026-04-20 15:28 | 53.61711 | 9.96637 | 37 ft | 14 kts | 230° |
| 2026-04-20 15:28 | 53.61666 | 9.96514 | 36 ft | 10 kts | 261° |
| 2026-04-20 15:28 | 53.61699 | 9.96427 | 38 ft | 7 kts | 334° |
| 2026-04-20 15:29 | 53.61705 | 9.96423 | 38 ft | 0 kts | 340° |
| 2026-04-20 15:29 | 53.61802 | 9.96427 | 40 ft | 20 kts | 5° |
| 2026-04-20 15:29 | 53.61907 | 9.96540 | 39 ft | 18 kts | 50° |
| 2026-04-20 15:30 | 53.61981 | 9.96689 | 39 ft | 16 kts | 50° |
| 2026-04-20 15:30 | 53.62166 | 9.97060 | 35 ft | 79 kts | 50° |
| 2026-04-20 15:30 | 53.62685 | 9.98111 | 53 ft | 148 kts | 52° |
| 2026-04-20 15:30 | 53.63350 | 9.99449 | 611 ft | 146 kts | 51° |
| 2026-04-20 15:31 | 53.63980 | 10.00709 | 1154 ft | 141 kts | 50° |
| 2026-04-20 15:31 | 53.64582 | 10.01940 | 2045 ft | 132 kts | 53° |
| 2026-04-20 15:31 | 53.65159 | 10.03121 | 2833 ft | 135 kts | 53° |
| 2026-04-20 15:31 | 53.65737 | 10.04301 | 3638 ft | 136 kts | 54° |
| 2026-04-20 15:32 | 53.66378 | 10.05620 | 3949 ft | 154 kts | 53° |
| 2026-04-20 15:32 | 53.67063 | 10.07016 | 4305 ft | 156 kts | 53° |
| 2026-04-20 15:32 | 53.67782 | 10.08487 | 4558 ft | 171 kts | 53° |
| 2026-04-20 15:32 | 53.68575 | 10.10108 | 4957 ft | 185 kts | 52° |
| 2026-04-20 15:33 | 53.69613 | 10.11555 | 5244 ft | 210 kts | 25° |
| 2026-04-20 15:33 | 53.71135 | 10.11805 | 5582 ft | 241 kts | 354° |
| 2026-04-20 15:33 | 53.72736 | 10.10541 | 5909 ft | 274 kts | 325° |
| 2026-04-20 15:33 | 53.73951 | 10.07904 | 6215 ft | 298 kts | 298° |
| 2026-04-20 15:34 | 53.74407 | 10.04454 | 6471 ft | 301 kts | 272° |
| 2026-04-20 15:34 | 53.74589 | 10.01002 | 6839 ft | 293 kts | 288° |
| 2026-04-20 15:34 | 53.74858 | 9.97624 | 7368 ft | 298 kts | 266° |
| 2026-04-20 15:34 | 53.74388 | 9.94240 | 7902 ft | 300 kts | 250° |
| 2026-04-20 15:35 | 53.73620 | 9.90918 | 8432 ft | 304 kts | 248° |
| 2026-04-20 15:35 | 53.72815 | 9.87657 | 8935 ft | 306 kts | 247° |
| 2026-04-20 15:35 | 53.71979 | 9.84337 | 9450 ft | 307 kts | 246° |
| 2026-04-20 15:35 | 53.71139 | 9.81021 | 9958 ft | 310 kts | 246° |
| 2026-04-20 15:36 | 53.70289 | 9.77667 | 10485 ft | 319 kts | 246° |
| 2026-04-20 15:36 | 53.69402 | 9.74177 | 11023 ft | 329 kts | 246° |
| 2026-04-20 15:36 | 53.68486 | 9.70581 | 11556 ft | 339 kts | 247° |
| 2026-04-20 15:36 | 53.67551 | 9.66915 | 12081 ft | 349 kts | 247° |
| 2026-04-20 15:37 | 53.66576 | 9.63099 | 12629 ft | 358 kts | 247° |
| 2026-04-20 15:37 | 53.65583 | 9.59228 | 13179 ft | 367 kts | 246° |
| 2026-04-20 15:37 | 53.64241 | 9.55540 | 13695 ft | 374 kts | 233° |
| 2026-04-20 15:37 | 53.62711 | 9.51995 | 14228 ft | 379 kts | 234° |
| 2026-04-20 15:38 | 53.61185 | 9.48438 | 14724 ft | 376 kts | 234° |
| 2026-04-20 15:38 | 53.59650 | 9.44863 | 15240 ft | 376 kts | 234° |
| 2026-04-20 15:38 | 53.58126 | 9.41319 | 15782 ft | 377 kts | 234° |
| 2026-04-20 15:38 | 53.56580 | 9.37727 | 16309 ft | 380 kts | 234° |
| 2026-04-20 15:39 | 53.55043 | 9.34161 | 16824 ft | 382 kts | 233° |
| 2026-04-20 15:39 | 53.53468 | 9.30514 | 17345 ft | 385 kts | 233° |
| 2026-04-20 15:39 | 53.51898 | 9.26883 | 17858 ft | 388 kts | 233° |
| 2026-04-20 15:39 | 53.50323 | 9.23244 | 18370 ft | 390 kts | 233° |
| 2026-04-20 15:40 | 53.48735 | 9.19583 | 18887 ft | 392 kts | 233° |
| 2026-04-20 15:40 | 53.47109 | 9.15841 | 19417 ft | 396 kts | 233° |
| 2026-04-20 15:40 | 53.45505 | 9.12152 | 19935 ft | 399 kts | 233° |
| 2026-04-20 15:40 | 53.43866 | 9.08390 | 20462 ft | 403 kts | 233° |
| 2026-04-20 15:41 | 53.42754 | 9.05840 | 20819 ft | 405 kts | 233° |
| 2026-04-20 15:41 | 53.41097 | 9.02043 | 21348 ft | 408 kts | 233° |
| 2026-04-20 15:41 | 53.39422 | 8.98213 | 21878 ft | 411 kts | 233° |
| 2026-04-20 15:41 | 53.37746 | 8.94386 | 22406 ft | 412 kts | 233° |
| 2026-04-20 15:42 | 53.36600 | 8.91772 | 22766 ft | 413 kts | 233° |
| 2026-04-20 15:42 | 53.34956 | 8.87888 | 23283 ft | 415 kts | 239° |
| 2026-04-20 15:42 | 53.33808 | 8.83453 | 23814 ft | 415 kts | 251° |
| 2026-04-20 15:42 | 53.32834 | 8.78968 | 24224 ft | 419 kts | 250° |
| 2026-04-20 15:43 | 53.31800 | 8.74276 | 24134 ft | 436 kts | 250° |
| 2026-04-20 15:43 | 53.30746 | 8.69509 | 24187 ft | 439 kts | 250° |
| 2026-04-20 15:43 | 53.29692 | 8.64747 | 24170 ft | 433 kts | 250° |
| 2026-04-20 15:43 | 53.28667 | 8.60054 | 24173 ft | 437 kts | 250° |
| 2026-04-20 15:44 | 53.27625 | 8.55301 | 24302 ft | 439 kts | 250° |
| 2026-04-20 15:44 | 53.26567 | 8.50480 | 24773 ft | 441 kts | 250° |
| 2026-04-20 15:44 | 53.25628 | 8.45623 | 25206 ft | 445 kts | 253° |
| 2026-04-20 15:44 | 53.24710 | 8.40713 | 25626 ft | 448 kts | 253° |
| 2026-04-20 15:45 | 53.23780 | 8.35770 | 26040 ft | 451 kts | 252° |
| 2026-04-20 15:45 | 53.22836 | 8.30769 | 26454 ft | 454 kts | 251° |
| 2026-04-20 15:45 | 53.21874 | 8.25696 | 26871 ft | 457 kts | 251° |
| 2026-04-20 15:45 | 53.20921 | 8.20688 | 27276 ft | 459 kts | 251° |
| 2026-04-20 15:46 | 53.19953 | 8.15614 | 27691 ft | 462 kts | 251° |
| 2026-04-20 15:46 | 53.18982 | 8.10517 | 28103 ft | 464 kts | 251° |
| 2026-04-20 15:46 | 53.18025 | 8.05419 | 28516 ft | 466 kts | 251° |
| 2026-04-20 15:46 | 53.17050 | 8.00251 | 28933 ft | 468 kts | 251° |
| 2026-04-20 15:47 | 53.16069 | 7.95064 | 29349 ft | 470 kts | 251° |
| 2026-04-20 15:47 | 53.15092 | 7.89918 | 29752 ft | 471 kts | 251° |
| 2026-04-20 15:47 | 53.14101 | 7.84699 | 30163 ft | 473 kts | 251° |
| 2026-04-20 15:47 | 53.13114 | 7.79529 | 30569 ft | 474 kts | 251° |
| 2026-04-20 15:48 | 53.12112 | 7.74287 | 30980 ft | 474 kts | 250° |
| 2026-04-20 15:48 | 53.11115 | 7.69073 | 31391 ft | 474 kts | 252° |
| 2026-04-20 15:48 | 53.10560 | 7.63581 | 31674 ft | 476 kts | 268° |
| 2026-04-20 15:48 | 53.10652 | 7.57993 | 31954 ft | 475 kts | 271° |
| 2026-04-20 15:49 | 53.10751 | 7.52370 | 32231 ft | 474 kts | 271° |
| 2026-04-20 15:49 | 53.10840 | 7.46957 | 32463 ft | 473 kts | 271° |
| 2026-04-20 15:49 | 53.10926 | 7.41369 | 32706 ft | 472 kts | 271° |
| 2026-04-20 15:49 | 53.11008 | 7.35934 | 32965 ft | 471 kts | 272° |
| 2026-04-20 15:50 | 53.11087 | 7.30495 | 33215 ft | 469 kts | 271° |
| 2026-04-20 15:50 | 53.11163 | 7.25074 | 33420 ft | 468 kts | 271° |
| 2026-04-20 15:50 | 53.11238 | 7.19554 | 33569 ft | 470 kts | 271° |
| 2026-04-20 15:50 | 53.11310 | 7.14086 | 33689 ft | 471 kts | 271° |
| 2026-04-20 15:51 | 53.11379 | 7.08646 | 33858 ft | 471 kts | 272° |
| 2026-04-20 15:51 | 53.11446 | 7.03196 | 33998 ft | 471 kts | 272° |
| 2026-04-20 15:51 | 53.11510 | 6.97777 | 34192 ft | 473 kts | 272° |
| 2026-04-20 15:52 | 53.11632 | 6.86762 | 34203 ft | 477 kts | 272° |
| 2026-04-20 15:52 | 53.11742 | 6.75897 | 34213 ft | 467 kts | 272° |
| 2026-04-20 15:53 | 53.11887 | 6.59767 | 34220 ft | 466 kts | 272° |
| 2026-04-20 15:53 | 53.11972 | 6.49046 | 34187 ft | 465 kts | 272° |
| 2026-04-20 15:54 | 53.12047 | 6.38326 | 34241 ft | 464 kts | 272° |
| 2026-04-20 15:54 | 53.12113 | 6.27590 | 34203 ft | 466 kts | 271° |
| 2026-04-20 15:55 | 53.12169 | 6.16842 | 34208 ft | 466 kts | 271° |
| 2026-04-20 15:55 | 53.12215 | 6.06059 | 34235 ft | 464 kts | 271° |
| 2026-04-20 15:56 | 53.12251 | 5.95361 | 34215 ft | 465 kts | 271° |
| 2026-04-20 15:56 | 53.12278 | 5.84675 | 34231 ft | 465 kts | 271° |
| 2026-04-20 15:57 | 53.12295 | 5.73921 | 34227 ft | 463 kts | 271° |
| 2026-04-20 15:57 | 53.12303 | 5.63259 | 34212 ft | 464 kts | 271° |
| 2026-04-20 15:58 | 53.12300 | 5.52563 | 34256 ft | 463 kts | 271° |
| 2026-04-20 15:58 | 53.12288 | 5.41908 | 34219 ft | 462 kts | 271° |
| 2026-04-20 15:59 | 53.12268 | 5.31220 | 34208 ft | 464 kts | 270° |
| 2026-04-20 15:59 | 53.12237 | 5.20552 | 34248 ft | 462 kts | 270° |
| 2026-04-20 16:00 | 53.12197 | 5.09870 | 34232 ft | 460 kts | 270° |
| 2026-04-20 16:00 | 53.12147 | 4.99269 | 34225 ft | 461 kts | 270° |
| 2026-04-20 16:01 | 53.12089 | 4.88645 | 34241 ft | 462 kts | 270° |
| 2026-04-20 16:01 | 53.12020 | 4.78012 | 34250 ft | 462 kts | 270° |
| 2026-04-20 16:02 | 53.11941 | 4.67314 | 34232 ft | 463 kts | 271° |
| 2026-04-20 16:02 | 53.11853 | 4.56640 | 34257 ft | 462 kts | 271° |
| 2026-04-20 16:03 | 53.11756 | 4.45972 | 34238 ft | 461 kts | 271° |
| 2026-04-20 16:03 | 53.11650 | 4.35334 | 34232 ft | 460 kts | 270° |
| 2026-04-20 16:04 | 53.11534 | 4.24778 | 34255 ft | 460 kts | 270° |
| 2026-04-20 16:04 | 53.11408 | 4.14085 | 34220 ft | 461 kts | 270° |
| 2026-04-20 16:05 | 53.11274 | 4.03476 | 34243 ft | 461 kts | 270° |
| 2026-04-20 16:05 | 53.11129 | 3.92807 | 34248 ft | 459 kts | 270° |
| 2026-04-20 16:06 | 53.10977 | 3.82265 | 34233 ft | 460 kts | 270° |
| 2026-04-20 16:06 | 53.10813 | 3.71639 | 34258 ft | 459 kts | 270° |
| 2026-04-20 16:07 | 53.10641 | 3.61083 | 34239 ft | 459 kts | 270° |
| 2026-04-20 16:07 | 53.10460 | 3.50502 | 34256 ft | 459 kts | 270° |
| 2026-04-20 16:08 | 53.10365 | 3.45199 | 33902 ft | 466 kts | 270° |
| 2026-04-20 16:08 | 53.10265 | 3.39764 | 33340 ft | 463 kts | 270° |
| 2026-04-20 16:08 | 53.10169 | 3.34625 | 33768 ft | 438 kts | 269° |
| 2026-04-20 16:08 | 53.10118 | 3.29620 | 34006 ft | 439 kts | 274° |
| 2026-04-20 16:09 | 53.10480 | 3.24582 | 34217 ft | 440 kts | 278° |
| 2026-04-20 16:09 | 53.10853 | 3.19459 | 34278 ft | 447 kts | 278° |
| 2026-04-20 16:09 | 53.11586 | 3.09059 | 34306 ft | 460 kts | 277° |
| 2026-04-20 16:10 | 53.12320 | 2.98412 | 34259 ft | 466 kts | 278° |
| 2026-04-20 16:10 | 53.13041 | 2.87788 | 34248 ft | 457 kts | 278° |
| 2026-04-20 16:11 | 53.13742 | 2.77331 | 34282 ft | 454 kts | 278° |
| 2026-04-20 16:11 | 53.14434 | 2.66887 | 34275 ft | 454 kts | 278° |
| 2026-04-20 16:12 | 53.15116 | 2.56436 | 34255 ft | 455 kts | 278° |
| 2026-04-20 16:12 | 53.15786 | 2.46029 | 34284 ft | 455 kts | 278° |
| 2026-04-20 16:13 | 53.16448 | 2.35599 | 34280 ft | 455 kts | 278° |
| 2026-04-20 16:13 | 53.17104 | 2.25122 | 34268 ft | 456 kts | 277° |
| 2026-04-20 16:14 | 53.17749 | 2.14659 | 34296 ft | 455 kts | 277° |
| 2026-04-20 16:14 | 53.18384 | 2.04216 | 34278 ft | 453 kts | 277° |
| 2026-04-20 16:15 | 53.19009 | 1.93793 | 34271 ft | 450 kts | 277° |
| 2026-04-20 16:15 | 53.19609 | 1.83621 | 34292 ft | 441 kts | 277° |
| 2026-04-20 16:16 | 53.20206 | 1.73354 | 34277 ft | 455 kts | 277° |
| 2026-04-20 16:16 | 53.20807 | 1.62862 | 34288 ft | 455 kts | 277° |
| 2026-04-20 16:17 | 53.21395 | 1.52443 | 34279 ft | 452 kts | 277° |
| 2026-04-20 16:17 | 53.21970 | 1.42081 | 34273 ft | 452 kts | 277° |
| 2026-04-20 16:18 | 53.22538 | 1.31666 | 34279 ft | 451 kts | 276° |
| 2026-04-20 16:18 | 53.23098 | 1.21260 | 34286 ft | 451 kts | 276° |
| 2026-04-20 16:19 | 53.23646 | 1.10877 | 34291 ft | 451 kts | 276° |
| 2026-04-20 16:19 | 53.24187 | 1.00479 | 34297 ft | 451 kts | 276° |
| 2026-04-20 16:20 | 53.24716 | 0.90110 | 34298 ft | 450 kts | 276° |
| 2026-04-20 16:20 | 53.25236 | 0.79760 | 34298 ft | 451 kts | 277° |
| 2026-04-20 16:21 | 53.25749 | 0.69351 | 34294 ft | 449 kts | 277° |
| 2026-04-20 16:21 | 53.26252 | 0.58977 | 34292 ft | 449 kts | 276° |
| 2026-04-20 16:22 | 53.26745 | 0.48609 | 34295 ft | 449 kts | 276° |
| 2026-04-20 16:22 | 53.27229 | 0.38240 | 34293 ft | 448 kts | 277° |
| 2026-04-20 16:23 | 53.27703 | 0.27884 | 34296 ft | 449 kts | 276° |
| 2026-04-20 16:23 | 53.28170 | 0.17483 | 34296 ft | 448 kts | 276° |
| 2026-04-20 16:24 | 53.28627 | 0.07136 | 34283 ft | 448 kts | 276° |
| 2026-04-20 16:24 | 53.29142 | 0.02011 | 34030 ft | 448 kts | 289° |
| 2026-04-20 16:24 | 53.30430 | -0.02666 | 33813 ft | 443 kts | 299° |
| 2026-04-20 16:25 | 53.31829 | -0.07246 | 33622 ft | 443 kts | 297° |
| 2026-04-20 16:25 | 53.33184 | -0.11815 | 33426 ft | 442 kts | 297° |
| 2026-04-20 16:25 | 53.34538 | -0.16434 | 33227 ft | 443 kts | 297° |
| 2026-04-20 16:25 | 53.35897 | -0.21090 | 33030 ft | 442 kts | 297° |
| 2026-04-20 16:26 | 53.37237 | -0.25701 | 32827 ft | 442 kts | 297° |
| 2026-04-20 16:26 | 53.38565 | -0.30278 | 32625 ft | 442 kts | 297° |
| 2026-04-20 16:26 | 53.39922 | -0.34967 | 32430 ft | 443 kts | 297° |
| 2026-04-20 16:26 | 53.41248 | -0.39555 | 32243 ft | 443 kts | 297° |
| 2026-04-20 16:27 | 53.42578 | -0.44171 | 31972 ft | 445 kts | 297° |
| 2026-04-20 16:27 | 53.43925 | -0.48851 | 31667 ft | 445 kts | 297° |
| 2026-04-20 16:27 | 53.45256 | -0.53486 | 31378 ft | 443 kts | 297° |
| 2026-04-20 16:27 | 53.46581 | -0.58107 | 31080 ft | 442 kts | 297° |
| 2026-04-20 16:28 | 53.47897 | -0.62711 | 30782 ft | 442 kts | 297° |
| 2026-04-20 16:28 | 53.49240 | -0.67415 | 30460 ft | 444 kts | 296° |
| 2026-04-20 16:28 | 53.50570 | -0.72082 | 29991 ft | 446 kts | 296° |
| 2026-04-20 16:28 | 53.51887 | -0.76713 | 29538 ft | 445 kts | 296° |
| 2026-04-20 16:29 | 53.53216 | -0.81396 | 29097 ft | 448 kts | 296° |
| 2026-04-20 16:29 | 53.54562 | -0.86152 | 28636 ft | 449 kts | 296° |
| 2026-04-20 16:29 | 53.55889 | -0.90845 | 28184 ft | 450 kts | 296° |
| 2026-04-20 16:29 | 53.57239 | -0.95631 | 27723 ft | 451 kts | 296° |
| 2026-04-20 16:30 | 53.58577 | -1.00387 | 27261 ft | 450 kts | 296° |
| 2026-04-20 16:30 | 53.59889 | -1.05056 | 26799 ft | 441 kts | 296° |
| 2026-04-20 16:30 | 53.60992 | -1.09756 | 26307 ft | 434 kts | 287° |
| 2026-04-20 16:30 | 53.61679 | -1.14690 | 25830 ft | 425 kts | 285° |
| 2026-04-20 16:31 | 53.62202 | -1.19464 | 25323 ft | 420 kts | 276° |
| 2026-04-20 16:31 | 53.61925 | -1.24349 | 24806 ft | 418 kts | 257° |
| 2026-04-20 16:31 | 53.60786 | -1.28805 | 24276 ft | 417 kts | 242° |
| 2026-04-20 16:31 | 53.59317 | -1.32978 | 23748 ft | 413 kts | 242° |
| 2026-04-20 16:32 | 53.57870 | -1.37098 | 23195 ft | 409 kts | 242° |
| 2026-04-20 16:32 | 53.56433 | -1.41165 | 22649 ft | 407 kts | 242° |
| 2026-04-20 16:32 | 53.55009 | -1.45201 | 22223 ft | 401 kts | 242° |
| 2026-04-20 16:32 | 53.53615 | -1.49128 | 22324 ft | 388 kts | 242° |
| 2026-04-20 16:33 | 53.52174 | -1.53015 | 22288 ft | 394 kts | 236° |
| 2026-04-20 16:33 | 53.50411 | -1.56525 | 22270 ft | 393 kts | 232° |
| 2026-04-20 16:33 | 53.48633 | -1.59979 | 22271 ft | 395 kts | 232° |
| 2026-04-20 16:33 | 53.46831 | -1.63483 | 21887 ft | 394 kts | 232° |
| 2026-04-20 16:34 | 53.45068 | -1.66890 | 21459 ft | 387 kts | 231° |
| 2026-04-20 16:34 | 53.43320 | -1.70279 | 21050 ft | 380 kts | 231° |
| 2026-04-20 16:34 | 53.41621 | -1.73579 | 20641 ft | 374 kts | 231° |
| 2026-04-20 16:34 | 53.39939 | -1.76842 | 20114 ft | 371 kts | 231° |
| 2026-04-20 16:35 | 53.38249 | -1.80130 | 19569 ft | 369 kts | 231° |
| 2026-04-20 16:35 | 53.36616 | -1.83317 | 18672 ft | 361 kts | 231° |
| 2026-04-20 16:35 | 53.35000 | -1.86470 | 17840 ft | 350 kts | 231° |
| 2026-04-20 16:35 | 53.33461 | -1.89483 | 17051 ft | 341 kts | 231° |
| 2026-04-20 16:36 | 53.31962 | -1.92430 | 16258 ft | 333 kts | 231° |
| 2026-04-20 16:36 | 53.30493 | -1.95337 | 15458 ft | 326 kts | 231° |
| 2026-04-20 16:36 | 53.29042 | -1.98205 | 14674 ft | 321 kts | 231° |
| 2026-04-20 16:36 | 53.27634 | -2.01010 | 13939 ft | 315 kts | 231° |
| 2026-04-20 16:37 | 53.26248 | -2.03777 | 13422 ft | 305 kts | 231° |
| 2026-04-20 16:37 | 53.24897 | -2.06485 | 12716 ft | 306 kts | 231° |
| 2026-04-20 16:37 | 53.23548 | -2.09198 | 11955 ft | 303 kts | 232° |
| 2026-04-20 16:37 | 53.22419 | -2.12095 | 11319 ft | 296 kts | 241° |
| 2026-04-20 16:38 | 53.21431 | -2.14992 | 10774 ft | 287 kts | 241° |
| 2026-04-20 16:38 | 53.20457 | -2.17858 | 10235 ft | 280 kts | 241° |
| 2026-04-20 16:38 | 53.19521 | -2.20622 | 9717 ft | 274 kts | 241° |
| 2026-04-20 16:38 | 53.18601 | -2.23354 | 9282 ft | 266 kts | 241° |
| 2026-04-20 16:39 | 53.17711 | -2.26002 | 8890 ft | 256 kts | 241° |
| 2026-04-20 16:39 | 53.16860 | -2.28544 | 8526 ft | 254 kts | 241° |
| 2026-04-20 16:39 | 53.16000 | -2.31126 | 8076 ft | 256 kts | 241° |
| 2026-04-20 16:39 | 53.15149 | -2.33698 | 7473 ft | 251 kts | 241° |
| 2026-04-20 16:40 | 53.14328 | -2.36198 | 6945 ft | 247 kts | 241° |
| 2026-04-20 16:40 | 53.13511 | -2.38700 | 6452 ft | 245 kts | 241° |
| 2026-04-20 16:40 | 53.12703 | -2.41178 | 6246 ft | 243 kts | 241° |
| 2026-04-20 16:40 | 53.11949 | -2.43696 | 6317 ft | 246 kts | 253° |
| 2026-04-20 16:41 | 53.11808 | -2.46499 | 5937 ft | 248 kts | 283° |
| 2026-04-20 16:41 | 53.12530 | -2.49044 | 5578 ft | 244 kts | 312° |
| 2026-04-20 16:41 | 53.13656 | -2.51110 | 5221 ft | 242 kts | 314° |
| 2026-04-20 16:41 | 53.14798 | -2.53202 | 4714 ft | 246 kts | 314° |
| 2026-04-20 16:42 | 53.15938 | -2.55289 | 4137 ft | 243 kts | 314° |
| 2026-04-20 16:42 | 53.17050 | -2.57328 | 3623 ft | 236 kts | 314° |
| 2026-04-20 16:42 | 53.18312 | -2.58806 | 3423 ft | 210 kts | 349° |
| 2026-04-20 16:42 | 53.19661 | -2.58715 | 3554 ft | 190 kts | 28° |
| 2026-04-20 16:43 | 53.20565 | -2.57276 | 3559 ft | 180 kts | 58° |
| 2026-04-20 16:43 | 53.21296 | -2.55599 | 3465 ft | 179 kts | 55° |
| 2026-04-20 16:43 | 53.22054 | -2.53973 | 3478 ft | 176 kts | 54° |
| 2026-04-20 16:43 | 53.22784 | -2.52440 | 3488 ft | 165 kts | 54° |
| 2026-04-20 16:44 | 53.23506 | -2.50942 | 3265 ft | 164 kts | 54° |
| 2026-04-20 16:44 | 53.24215 | -2.49480 | 3064 ft | 163 kts | 54° |
| 2026-04-20 16:44 | 53.24939 | -2.47995 | 2851 ft | 163 kts | 54° |
| 2026-04-20 16:44 | 53.25644 | -2.46552 | 2639 ft | 162 kts | 54° |
| 2026-04-20 16:45 | 53.26351 | -2.45106 | 2440 ft | 161 kts | 54° |
| 2026-04-20 16:45 | 53.27058 | -2.43661 | 2206 ft | 157 kts | 54° |
| 2026-04-20 16:45 | 53.27713 | -2.42319 | 1977 ft | 146 kts | 54° |
| 2026-04-20 16:45 | 53.28352 | -2.41017 | 1783 ft | 143 kts | 53° |
| 2026-04-20 16:46 | 53.28980 | -2.39736 | 1598 ft | 143 kts | 54° |
| 2026-04-20 16:46 | 53.29608 | -2.38432 | 1399 ft | 140 kts | 54° |
| 2026-04-20 16:46 | 53.30214 | -2.37193 | 1205 ft | 140 kts | 54° |
| 2026-04-20 16:46 | 53.30827 | -2.35929 | 1020 ft | 142 kts | 54° |
| 2026-04-20 16:47 | 53.31456 | -2.34636 | 838 ft | 145 kts | 54° |
| 2026-04-20 16:47 | 53.32081 | -2.33345 | 650 ft | 144 kts | 52° |
| 2026-04-20 16:47 | 53.32722 | -2.32033 | 452 ft | 146 kts | 52° |
| 2026-04-20 16:47 | 53.33347 | -2.30749 | 267 ft | 137 kts | 52° |
| 2026-04-20 16:48 | 53.33831 | -2.29749 | 265 ft | 84 kts | 51° |
| 2026-04-20 16:48 | 53.34091 | -2.29212 | 264 ft | 34 kts | 51° |
| 2026-04-20 16:48 | 53.34144 | -2.29101 | 264 ft | 1 kts | 51° |
| 2026-04-20 16:48 | 53.34188 | -2.29012 | 264 ft | 23 kts | 51° |
| 2026-04-20 16:49 | 53.34303 | -2.28775 | 264 ft | 26 kts | 51° |
| 2026-04-20 16:49 | 53.34428 | -2.28596 | 264 ft | 22 kts | 32° |
| 2026-04-20 16:49 | 53.34536 | -2.28516 | 264 ft | 0 kts | 22° |
| 2026-04-20 16:49 | 53.34553 | -2.28505 | 264 ft | 6 kts | 21° |
| 2026-04-20 16:50 | 53.34603 | -2.28473 | 264 ft | 7 kts | 21° |
| 2026-04-20 16:50 | 53.34652 | -2.28441 | 264 ft | 7 kts | 21° |
| 2026-04-20 16:50 | 53.34723 | -2.28374 | 264 ft | 14 kts | 45° |
| 2026-04-20 16:50 | 53.34789 | -2.28241 | 264 ft | 14 kts | 51° |
| 2026-04-20 16:51 | 53.34853 | -2.28111 | 264 ft | 14 kts | 51° |
| 2026-04-20 16:51 | 53.34914 | -2.27983 | 264 ft | 13 kts | 52° |
| 2026-04-20 16:51 | 53.34974 | -2.27858 | 264 ft | 13 kts | 50° |
| 2026-04-20 16:51 | 53.35032 | -2.27739 | 264 ft | 12 kts | 51° |
| 2026-04-20 16:52 | 53.35087 | -2.27623 | 264 ft | 12 kts | 52° |
| 2026-04-20 16:52 | 53.35140 | -2.27514 | 264 ft | 12 kts | 51° |
| 2026-04-20 16:52 | 53.35193 | -2.27406 | 264 ft | 11 kts | 51° |
| 2026-04-20 16:52 | 53.35244 | -2.27303 | 264 ft | 11 kts | 51° |
| 2026-04-20 16:53 | 53.35295 | -2.27211 | 264 ft | 10 kts | 31° |
| 2026-04-20 16:53 | 53.35325 | -2.27194 | 264 ft | 0 kts | 9° |
| 2026-04-20 16:54 | 53.35344 | -2.27193 | 264 ft | 8 kts | 356° |
| 2026-04-20 16:54 | 53.35407 | -2.27237 | 264 ft | 10 kts | 327° |
| 2026-04-20 16:54 | 53.35463 | -2.27312 | 264 ft | 10 kts | 321° |
| 2026-04-20 16:55 | 53.35518 | -2.27387 | 264 ft | 9 kts | 321° |
| 2026-04-20 16:55 | 53.35565 | -2.27450 | 264 ft | 3 kts | 321° |
| 2026-04-20 16:55 | 53.35566 | -2.27451 | 264 ft | 0 kts | 321° |
| 2026-04-20 16:59 | 53.35567 | -2.27453 | 264 ft | 1 kts | 321° |
| 2026-04-20 16:59 | 53.35616 | -2.27519 | 264 ft | 11 kts | 321° |
| 2026-04-20 16:59 | 53.35669 | -2.27590 | 264 ft | 8 kts | 323° |
| 2026-04-20 16:59 | 53.35722 | -2.27636 | 264 ft | 8 kts | 338° |
| 2026-04-20 17:00 | 53.35808 | -2.27726 | 264 ft | 5 kts | 311° |
| 2026-04-20 17:00 | 53.35809 | -2.27729 | 264 ft | 0 kts | 311° |
| 2026-04-20 17:01 | 53.35826 | -2.27761 | 264 ft | 6 kts | 311° |
| 2026-04-20 17:02 | 53.35827 | -2.27762 | 264 ft | 0 kts | 311° |
| 2026-04-20 17:07 | 53.35829 | -2.27767 | 264 ft | 4 kts | 311° |
| 2026-04-20 17:07 | 53.35876 | -2.27843 | 264 ft | 10 kts | 332° |
| 2026-04-20 17:07 | 53.35944 | -2.27842 | 264 ft | 10 kts | 6° |
| 2026-04-20 17:08 | 53.36013 | -2.27832 | 264 ft | 9 kts | 1° |
| 2026-04-20 17:08 | 53.36074 | -2.27867 | 264 ft | 9 kts | 323° |
| 2026-04-20 17:08 | 53.36119 | -2.27939 | 264 ft | 8 kts | 315° |
| 2026-04-20 17:08 | 53.36163 | -2.28012 | 264 ft | 8 kts | 315° |
| 2026-04-20 17:09 | 53.36208 | -2.28075 | 264 ft | 8 kts | 334° |
| 2026-04-20 17:09 | 53.36263 | -2.28075 | 264 ft | 7 kts | 13° |
| 2026-04-20 17:09 | 53.36298 | -2.28059 | 264 ft | 0 kts | 18° |
| 2026-04-20 17:09 | 53.36270 | -2.28066 | 264 ft | 0 kts | 18° |
| 2026-04-20 17:10 | 53.36219 | -2.28065 | 264 ft | 6 kts | 33° |
| 2026-04-20 17:10 | 53.36231 | -2.28020 | 264 ft | 4 kts | 80° |
| 2026-04-20 17:10 | 53.36234 | -2.27968 | 264 ft | 4 kts | 86° |
| 2026-04-20 17:10 | 53.36235 | -2.27949 | 264 ft | 0 kts | 86° |